createdAt,value
2022-11-22T00:01:09.654Z,92.50
2022-11-22T00:06:05.677Z,92.50
2022-11-22T00:16:01.064Z,92.50
2022-11-22T00:18:31.045Z,92.50
2022-11-22T00:23:27.061Z,92.50
2022-11-22T00:25:54.811Z,92.60
2022-11-22T00:28:22.621Z,92.60
2022-11-22T00:30:52.198Z,92.60
2022-11-22T00:35:51.612Z,92.60
2022-11-22T00:43:15.731Z,92.60
2022-11-22T00:45:49.589Z,92.60
2022-11-22T00:48:17.585Z,92.60
2022-11-22T00:50:45.669Z,92.60
2022-11-22T00:53:14.885Z,92.60
2022-11-22T00:57:56.154Z,92.60
2022-11-22T01:05:17.822Z,92.50
2022-11-22T01:07:45.805Z,92.50
2022-11-22T01:10:13.601Z,92.50
2022-11-22T01:14:57.578Z,92.40
2022-11-22T01:17:25.339Z,92.50
2022-11-22T01:19:53.106Z,92.40
2022-11-22T01:22:20.961Z,92.40
2022-11-22T01:27:02.963Z,92.40
2022-11-22T01:29:30.923Z,92.30
2022-11-22T01:31:58.782Z,92.30
2022-11-22T01:34:29.257Z,92.20
2022-11-22T01:39:17.977Z,92.10
2022-11-22T01:44:30.555Z,92.00
2022-11-22T01:47:00.514Z,91.90
2022-11-22T01:49:33.093Z,92.00
2022-11-22T01:52:04.737Z,91.90
2022-11-22T01:54:36.666Z,91.90
2022-11-22T01:57:12.027Z,91.80
2022-11-22T01:59:45.624Z,91.80
2022-11-22T02:02:15.621Z,91.70
2022-11-22T02:04:44.704Z,91.70
2022-11-22T02:07:17.953Z,92.20
2022-11-22T02:09:47.554Z,91.80
2022-11-22T02:12:20.292Z,92.30
2022-11-22T02:14:50.853Z,92.40
2022-11-22T02:19:52.729Z,92.40
2022-11-22T02:22:27.913Z,92.40
2022-11-22T02:27:23.202Z,92.50
2022-11-22T02:29:51.385Z,92.50
2022-11-22T02:32:24.729Z,92.60
2022-11-22T02:37:06.138Z,92.60
2022-11-22T02:39:36.232Z,92.60
2022-11-22T02:42:13.184Z,92.60
2022-11-22T02:44:42.108Z,92.70
2022-11-22T02:49:36.479Z,92.60
2022-11-22T02:54:32.643Z,92.60
2022-11-22T02:59:28.650Z,92.60
2022-11-22T03:07:02.223Z,92.60
2022-11-22T03:09:30.450Z,92.60
2022-11-22T03:11:58.597Z,92.60
2022-11-22T03:14:32.384Z,92.50
2022-11-22T03:17:00.366Z,92.60
2022-11-22T03:19:31.438Z,92.50
2022-11-22T03:22:06.529Z,92.50
2022-11-22T03:24:34.295Z,92.40
2022-11-22T03:36:55.754Z,92.30
2022-11-22T03:39:25.105Z,92.30
2022-11-22T03:41:55.415Z,92.30
2022-11-22T03:49:04.767Z,92.20
2022-11-22T03:53:46.123Z,92.10
2022-11-22T03:56:14.839Z,92.10
2022-11-22T03:58:48.097Z,92.10
2022-11-22T04:01:16.987Z,92.10
2022-11-22T04:05:58.601Z,92.00
2022-11-22T04:08:26.387Z,92.00
2022-11-22T04:10:54.361Z,92.00
2022-11-22T04:15:38.896Z,91.90
2022-11-22T04:20:50.213Z,91.90
2022-11-22T04:23:20.299Z,91.90
2022-11-22T04:25:48.723Z,91.80
2022-11-22T04:28:19.008Z,91.90
2022-11-22T04:33:32.495Z,91.80
2022-11-22T04:36:01.771Z,91.80
2022-11-22T04:41:00.547Z,91.80
2022-11-22T04:43:48.106Z,91.70
2022-11-22T04:46:16.774Z,91.80
2022-11-22T04:48:50.242Z,91.70
2022-11-22T04:51:36.986Z,91.70
2022-11-22T04:54:08.557Z,91.70
2022-11-22T04:56:39.012Z,91.70
2022-11-22T04:59:06.787Z,91.70
2022-11-22T05:01:37.250Z,91.70
2022-11-22T05:04:08.103Z,91.70
2022-11-22T05:08:52.159Z,91.60
2022-11-22T05:16:16.842Z,91.60
2022-11-22T05:19:01.028Z,91.60
2022-11-22T05:21:30.509Z,91.70
2022-11-22T05:24:00.487Z,91.60
2022-11-22T05:26:29.820Z,91.60
2022-11-22T05:28:58.932Z,91.70
2022-11-22T05:34:03.812Z,91.60
2022-11-22T05:36:32.947Z,91.70
2022-11-22T05:41:34.878Z,91.60
2022-11-22T05:44:02.682Z,91.60
2022-11-22T05:48:43.629Z,91.70
2022-11-22T05:51:12.939Z,91.70
2022-11-22T05:53:41.545Z,91.60
2022-11-22T05:58:24.946Z,91.50
2022-11-22T06:00:52.726Z,91.60
2022-11-22T06:03:20.616Z,91.60
2022-11-22T06:05:52.768Z,91.60
2022-11-22T06:08:20.546Z,91.70
2022-11-22T06:10:51.698Z,91.80
2022-11-22T06:13:19.530Z,91.80
2022-11-22T06:15:55.754Z,91.90
2022-11-22T06:18:23.551Z,91.90
2022-11-22T06:20:58.485Z,91.90
2022-11-22T06:23:29.424Z,92.00
2022-11-22T06:26:01.261Z,91.90
2022-11-22T06:28:33.494Z,92.00
2022-11-22T06:31:06.889Z,91.90
2022-11-22T06:33:35.121Z,92.00
2022-11-22T06:41:08.350Z,92.00
2022-11-22T06:43:37.515Z,91.90
2022-11-22T06:46:09.099Z,91.90
2022-11-22T06:48:38.754Z,91.90
2022-11-22T06:51:11.574Z,91.80
2022-11-22T06:53:47.288Z,91.80
2022-11-22T06:56:22.781Z,91.80
2022-11-22T06:58:52.517Z,91.70
2022-11-22T07:01:22.921Z,91.70
2022-11-22T07:03:51.529Z,91.70
2022-11-22T07:06:20.323Z,91.70
2022-11-22T07:11:22.394Z,91.70
2022-11-22T07:13:57.305Z,91.70
2022-11-22T07:16:28.468Z,91.70
2022-11-22T07:18:56.318Z,91.60
2022-11-22T07:21:25.762Z,91.60
2022-11-22T07:24:02.939Z,91.60
2022-11-22T07:26:32.063Z,91.60
2022-11-22T07:28:59.834Z,91.60
2022-11-22T07:33:42.504Z,91.60
2022-11-22T07:36:12.071Z,91.50
2022-11-22T07:41:00.625Z,91.60
2022-11-22T07:46:06.887Z,91.50
2022-11-22T07:48:35.345Z,91.60
2022-11-22T07:51:13.955Z,91.50
2022-11-22T07:53:44.521Z,91.50
2022-11-22T07:56:14.213Z,91.60
2022-11-22T08:01:17.593Z,91.60
2022-11-22T08:03:46.378Z,91.50
2022-11-22T08:06:15.067Z,91.50
2022-11-22T08:11:17.158Z,91.50
2022-11-22T08:18:10.058Z,91.50
2022-11-22T08:20:46.979Z,91.50
2022-11-22T08:23:14.785Z,91.50
2022-11-22T08:28:14.549Z,91.50
2022-11-22T08:30:42.403Z,91.50
2022-11-22T08:33:11.522Z,91.50
2022-11-22T08:35:42.158Z,91.50
2022-11-22T08:38:12.479Z,91.50
2022-11-22T08:40:43.245Z,91.50
2022-11-22T08:43:11.627Z,91.50
2022-11-22T08:45:39.702Z,91.50
2022-11-22T08:48:07.789Z,91.50
2022-11-22T08:50:42.747Z,91.50
2022-11-22T08:53:13.305Z,91.50
2022-11-22T08:55:42.286Z,91.50
2022-11-22T08:58:10.449Z,91.50
2022-11-22T09:00:40.804Z,91.40
2022-11-22T09:03:08.699Z,91.50
2022-11-22T09:11:02.220Z,91.50
2022-11-22T09:15:49.110Z,91.50
2022-11-22T09:18:16.898Z,91.50
2022-11-22T09:25:11.434Z,91.40
2022-11-22T09:27:39.174Z,91.30
2022-11-22T09:30:08.552Z,91.40
2022-11-22T09:32:36.346Z,91.40
2022-11-22T09:35:06.250Z,91.30
2022-11-22T09:37:34.041Z,91.30
2022-11-22T09:45:14.809Z,91.30
2022-11-22T09:47:51.340Z,91.20
2022-11-22T09:50:27.143Z,91.20
2022-11-22T09:53:02.597Z,91.20
2022-11-22T09:55:36.217Z,91.20
2022-11-22T09:58:11.538Z,91.30
2022-11-22T10:00:49.147Z,91.30
2022-11-22T10:03:29.854Z,91.30
2022-11-22T10:06:06.490Z,91.20
2022-11-22T10:08:53.193Z,91.20
2022-11-22T10:11:43.966Z,91.20
2022-11-22T10:14:26.512Z,91.20
2022-11-22T10:17:20.438Z,91.20
2022-11-22T10:19:54.819Z,91.20
2022-11-22T10:22:37.569Z,91.10
2022-11-22T10:25:16.195Z,91.10
2022-11-22T10:27:46.972Z,91.10
2022-11-22T10:30:17.403Z,91.10
2022-11-22T10:33:01.998Z,91.20
2022-11-22T10:36:05.017Z,91.20
2022-11-22T10:39:08.708Z,91.10
2022-11-22T10:41:48.173Z,91.10
2022-11-22T10:44:26.649Z,91.10
2022-11-22T10:47:04.720Z,91.00
2022-11-22T10:49:46.172Z,91.10
2022-11-22T10:52:22.985Z,91.10
2022-11-22T10:54:59.596Z,91.10
2022-11-22T10:59:56.878Z,90.70
2022-11-22T11:02:53.114Z,91.20
2022-11-22T11:05:33.026Z,91.10
2022-11-22T11:08:22.072Z,90.70
2022-11-22T11:10:49.997Z,91.20
2022-11-22T11:13:25.915Z,90.80
2022-11-22T11:15:56.632Z,90.80
2022-11-22T11:18:29.864Z,90.70
2022-11-22T11:20:59.842Z,90.60
2022-11-22T11:23:27.721Z,90.60
2022-11-22T11:28:13.233Z,90.40
2022-11-22T11:30:45.926Z,90.40
2022-11-22T11:33:29.788Z,90.20
2022-11-22T11:36:03.161Z,90.20
2022-11-22T11:38:33.709Z,90.20
2022-11-22T11:41:26.873Z,90.10
2022-11-22T11:43:57.089Z,90.10
2022-11-22T11:46:28.731Z,90.00
2022-11-22T11:49:16.545Z,90.00
2022-11-22T11:54:01.848Z,90.00
2022-11-22T11:56:44.665Z,90.00
2022-11-22T11:59:15.763Z,90.00
2022-11-22T12:04:21.873Z,90.00
2022-11-22T12:09:27.598Z,90.00
2022-11-22T12:11:57.766Z,90.00
2022-11-22T12:14:37.765Z,89.90
2022-11-22T12:17:25.242Z,90.00
2022-11-22T12:20:04.510Z,90.00
2022-11-22T12:22:49.997Z,89.90
2022-11-22T12:25:35.032Z,89.90
2022-11-22T12:28:12.996Z,89.70
2022-11-22T12:30:46.584Z,89.60
2022-11-22T12:33:31.857Z,89.50
2022-11-22T12:38:35.078Z,89.50
2022-11-22T12:41:12.342Z,89.30
2022-11-22T12:43:48.845Z,89.40
2022-11-22T12:46:32.979Z,89.40
2022-11-22T12:49:09.592Z,89.50
2022-11-22T12:51:43.532Z,89.60
2022-11-22T12:54:24.024Z,89.50
2022-11-22T12:57:03.137Z,89.40
2022-11-22T13:01:51.336Z,89.30
2022-11-22T13:04:27.480Z,89.40
2022-11-22T13:07:00.821Z,89.30
2022-11-22T13:09:33.433Z,89.20
2022-11-22T13:12:07.834Z,89.10
2022-11-22T13:14:40.831Z,89.20
2022-11-22T13:17:11.896Z,89.20
2022-11-22T13:19:47.060Z,89.20
2022-11-22T13:22:20.853Z,88.90
2022-11-22T13:25:05.605Z,89.00
2022-11-22T13:27:37.265Z,89.00
2022-11-22T13:30:18.030Z,88.50
2022-11-22T13:32:50.274Z,88.30
2022-11-22T13:38:17.678Z,88.10
2022-11-22T13:40:56.767Z,88.00
2022-11-22T13:43:51.215Z,88.00
2022-11-22T13:46:51.574Z,87.80
2022-11-22T13:49:37.241Z,88.00
2022-11-22T13:54:57.956Z,87.60
2022-11-22T13:57:31.719Z,87.60
2022-11-22T14:00:48.267Z,87.50
2022-11-22T14:05:41.956Z,87.50
2022-11-22T14:10:59.670Z,87.60
2022-11-22T14:13:39.555Z,87.40
2022-11-22T14:16:21.654Z,87.50
2022-11-22T14:18:59.558Z,87.30
2022-11-22T14:22:02.915Z,87.20
2022-11-22T14:26:58.335Z,87.10
2022-11-22T14:29:57.135Z,87.20
2022-11-22T14:32:41.210Z,87.10
2022-11-22T14:35:36.355Z,87.10
2022-11-22T14:38:30.076Z,87.10
2022-11-22T14:43:34.847Z,87.00
2022-11-22T14:46:30.341Z,87.00
2022-11-22T14:49:07.575Z,87.00
2022-11-22T14:51:35.472Z,87.00
2022-11-22T14:54:06.776Z,87.20
2022-11-22T14:56:36.410Z,87.20
2022-11-22T15:01:47.171Z,87.30
2022-11-22T15:09:12.940Z,87.20
2022-11-22T15:09:19.915Z,87.20
2022-11-22T15:11:21.498Z,87.30
2022-11-22T15:14:13.261Z,87.40
2022-11-22T15:59:42.483Z,89.40
2022-11-22T16:02:16.454Z,89.50
2022-11-22T16:10:42.383Z,90.00
2022-11-22T16:13:22.455Z,90.10
2022-11-22T16:22:37.339Z,90.40
2022-11-22T16:25:31.788Z,90.40
2022-11-22T16:28:16.759Z,90.40
2022-11-22T16:30:50.571Z,90.40
2022-11-22T16:33:18.354Z,90.50
2022-11-22T16:38:18.663Z,90.60
2022-11-22T16:40:49.206Z,90.60
2022-11-22T16:45:49.310Z,90.70
2022-11-22T16:48:31.769Z,90.80
2022-11-22T16:51:05.786Z,90.80
2022-11-22T16:56:09.234Z,91.10
2022-11-22T16:58:36.965Z,91.60
2022-11-22T17:24:18.199Z,92.00
2022-11-22T17:26:52.046Z,92.00
2022-11-22T17:32:13.508Z,91.90
2022-11-22T17:34:41.385Z,91.90
2022-11-22T17:37:14.344Z,91.90
2022-11-22T17:39:46.759Z,92.00
2022-11-22T17:44:43.032Z,91.90
2022-11-22T17:47:10.751Z,91.90
2022-11-22T17:49:38.648Z,91.90
2022-11-22T17:54:34.594Z,92.00
2022-11-22T17:57:06.018Z,92.00
2022-11-22T18:02:03.313Z,92.00
2022-11-22T18:04:31.959Z,92.00
2022-11-22T18:09:28.458Z,92.00
2022-11-22T18:11:56.594Z,92.00
2022-11-22T18:14:26.136Z,92.00
2022-11-22T18:16:54.270Z,91.90
2022-11-22T18:19:22.569Z,92.00
2022-11-22T18:21:50.363Z,91.90
2022-11-22T18:24:18.167Z,91.90
2022-11-22T18:32:06.942Z,91.90
2022-11-22T18:34:34.735Z,91.90
2022-11-22T18:37:05.635Z,91.80
2022-11-22T18:39:38.479Z,91.80
2022-11-22T18:42:08.435Z,91.90
2022-11-22T18:44:36.229Z,91.90
2022-11-22T18:47:04.078Z,91.90
2022-11-22T18:49:33.650Z,92.00
2022-11-22T19:27:50.557Z,92.40
2022-11-22T19:30:18.453Z,92.70
2022-11-22T19:32:46.206Z,92.60
2022-11-22T19:37:12.419Z,92.20
2022-11-22T19:52:57.124Z,92.90
2022-11-22T21:06:17.498Z,93.60
2022-11-22T21:43:19.696Z,93.90
2022-11-22T21:51:14.527Z,93.70
2022-11-22T21:55:17.114Z,95.20
2022-11-22T22:58:25.651Z,93.90
2022-11-22T23:28:37.216Z,93.80
2022-11-22T23:34:00.777Z,93.90
